Pagina principală
METAR-TAF:

METAR-TAF

Aeroporturi :

Midway, Statele Unite ale Americii

Latitudine: 28-13N, longitudine: 177-22W, elevație: 4 m

METAR: lipsă

Ora: 07:36 (17:36 UTC)

Prognoză

Raportul a fost făcut în urmă cu 6 ore și 1 de minute, la 11:35 UTC
Prognoză valabilă de la 21 ora 12 UTC la 22 ora 12 UTC
Vânt 10 kt de la Nord
Vizibilitate: 10 km
Nori împrăștiați la o înălțime de 2000 picior
Nori fragmentați la o înălțime de 3500 picior
De la 22 ora 0300 UTC
Vânt 12 kt de la Nord-est
Vizibilitate: 10 km
Nori împrăștiați la o înălțime de 2000 picior
Nori fragmentați la o înălțime de 3500 picior

TAF: PMDY 211135Z 2112/2212 01010KT P6SM SCT020 BKN035 FM220300 05012KT P6SM SCT020 BKN035 AMD NOT SKED

Observații și prognoze meteo pentru peste 4.000 de aeroporturi (rapoarte METAR și TAF).

Stațiile disponibile sunt reprezentate pe hartă prin puncte galbene și roșii.

Țineți indicatorul mouse-ului pe punctul dorit pentru a vedea denumirea stației.

Apoi, faceți clic pentru a vedea observațiile și prognozele meteorologice.

Pentru a schimba harta: Pentru mărire, faceți clic pe butoanele verzi cu cruce neagră; pentru micșorare, pe butonul verde cu o liniuță; pentru hărți învecinate, pe săgețile verzi.


METAR-TAF: